createdAt,value
2023-04-15T00:03:57.652Z,100307.00
2023-04-15T00:13:59.252Z,100307.00
2023-04-15T00:24:01.096Z,100305.38
2023-04-15T00:34:02.477Z,100308.75
2023-04-15T00:44:03.924Z,100313.13
2023-04-15T00:54:08.199Z,100321.72
2023-04-15T01:04:11.662Z,100314.88
2023-04-15T01:14:13.526Z,100308.00
2023-04-15T01:24:18.569Z,100310.63
2023-04-15T01:34:20.118Z,100310.63
2023-04-15T01:44:21.647Z,100311.50
2023-04-15T01:54:23.054Z,100319.28
2023-04-15T02:04:24.601Z,100310.66
2023-04-15T02:14:26.131Z,100316.72
2023-04-15T02:24:28.586Z,100315.00
2023-04-15T02:34:30.476Z,100329.59
2023-04-15T02:44:32.861Z,100341.59
2023-04-15T02:54:34.216Z,100349.34
2023-04-15T03:04:36.042Z,100361.31
2023-04-15T03:14:37.432Z,100368.22
2023-04-15T03:24:38.818Z,100362.16
2023-04-15T03:34:40.211Z,100364.66
2023-04-15T03:44:41.735Z,100374.13
2023-04-15T03:54:43.280Z,100389.53
2023-04-15T04:04:44.695Z,100400.63
2023-04-15T04:14:46.133Z,100406.69
2023-04-15T04:24:47.598Z,100409.22
2023-04-15T04:34:48.934Z,100406.59
2023-04-15T04:44:50.278Z,100422.75
2023-04-15T04:54:51.741Z,100430.53
2023-04-15T05:04:54.523Z,100447.69
2023-04-15T05:14:56.028Z,100453.59
2023-04-15T05:24:57.398Z,100464.88
2023-04-15T05:34:58.929Z,100470.00
2023-04-15T05:45:00.332Z,100490.53
2023-04-15T05:55:02.126Z,100509.44
2023-04-15T06:05:04.057Z,100519.03
2023-04-15T06:15:06.624Z,100529.34
2023-04-15T06:25:09.236Z,100545.88
2023-04-15T06:35:11.772Z,100546.91
2023-04-15T06:45:13.277Z,100565.13
2023-04-15T06:55:14.886Z,100570.34
2023-04-15T07:05:16.437Z,100585.91
2023-04-15T07:15:17.984Z,100588.47
2023-04-15T07:25:19.545Z,100595.28
2023-04-15T07:35:21.593Z,100616.78
2023-04-15T07:45:22.954Z,100618.44
2023-04-15T07:55:25.389Z,100626.09
2023-04-15T08:05:27.491Z,100625.22
2023-04-15T08:15:28.976Z,100631.19
2023-04-15T08:25:30.468Z,100641.53
2023-04-15T08:35:31.852Z,100646.88
2023-04-15T08:45:33.771Z,100657.88
2023-04-15T08:55:36.914Z,100678.56
2023-04-15T09:05:38.816Z,100679.50
2023-04-15T09:15:40.511Z,100694.81
2023-04-15T09:25:42.502Z,100698.25
2023-04-15T09:35:57.693Z,100724.09
2023-04-15T09:45:59.211Z,100732.72
2023-04-15T09:56:02.439Z,100727.38
2023-04-15T10:06:05.571Z,100733.38
2023-04-15T10:16:14.742Z,100751.69
2023-04-15T10:26:20.232Z,100755.16
2023-04-15T10:36:22.229Z,100765.53
2023-04-15T10:46:38.678Z,100776.72
2023-04-15T10:56:45.554Z,100779.25
2023-04-15T11:06:47.068Z,100783.75
2023-04-15T11:16:48.782Z,100794.78
2023-04-15T11:26:50.271Z,100803.59
2023-04-15T11:36:57.114Z,100804.41
2023-04-15T11:46:58.525Z,100818.88
2023-04-15T11:57:01.835Z,100824.06
2023-04-15T12:07:06.490Z,100835.28
2023-04-15T12:17:10.644Z,100849.25
2023-04-15T12:27:13.068Z,100861.31
2023-04-15T12:37:14.542Z,100882.94
2023-04-15T12:47:16.111Z,100898.53
2023-04-15T12:57:17.485Z,100904.50
2023-04-15T13:07:18.835Z,100938.28
2023-04-15T13:17:22.040Z,100931.41
2023-04-15T13:27:23.909Z,100943.56
2023-04-15T13:37:29.409Z,100964.28
2023-04-15T13:47:31.018Z,100969.47
2023-04-15T13:57:32.665Z,100982.41
2023-04-15T14:07:34.387Z,100984.13
2023-04-15T14:17:36.107Z,100993.63
2023-04-15T14:27:37.526Z,101017.75
2023-04-15T14:37:38.892Z,101025.50
2023-04-15T14:47:40.918Z,101024.66
2023-04-15T14:57:43.018Z,101047.06
2023-04-15T15:07:44.452Z,101062.59
2023-04-15T15:17:45.971Z,101054.00
2023-04-15T15:27:47.607Z,101064.31
2023-04-15T15:37:48.996Z,101085.91
2023-04-15T15:47:50.681Z,101077.22
2023-04-15T15:57:52.286Z,101104.78
2023-04-15T16:07:53.719Z,101105.59
2023-04-15T16:17:55.403Z,101112.44
2023-04-15T16:28:01.494Z,101127.03
2023-04-15T16:38:07.351Z,101136.50
2023-04-15T16:48:08.716Z,101142.44
2023-04-15T16:58:10.245Z,101152.84
2023-04-15T17:08:11.831Z,101154.50
2023-04-15T17:18:13.378Z,101178.59
2023-04-15T17:28:14.726Z,101188.72
2023-04-15T17:38:16.344Z,101208.41
2023-04-15T17:48:17.783Z,101216.22
2023-04-15T17:58:22.248Z,101238.41
2023-04-15T18:08:23.724Z,101242.72
2023-04-15T18:18:25.308Z,101241.72
2023-04-15T18:28:26.696Z,101269.91
2023-04-15T18:38:28.283Z,101280.94
2023-04-15T18:48:30.893Z,101297.19
2023-04-15T18:59:26.981Z,101317.59
2023-04-15T19:08:53.948Z,101328.78
2023-04-15T19:18:55.425Z,101339.97
2023-04-15T19:28:58.768Z,101354.50
2023-04-15T19:39:01.452Z,101374.47
2023-04-15T19:49:03.152Z,101367.50
2023-04-15T19:59:05.174Z,101370.94
2023-04-15T20:09:07.708Z,101380.03
2023-04-15T20:19:12.327Z,101392.28
2023-04-15T20:29:13.961Z,101393.81
2023-04-15T20:39:15.788Z,101391.13
2023-04-15T20:49:17.605Z,101391.09
2023-04-15T20:59:19.195Z,101406.38
2023-04-15T21:09:20.635Z,101399.72
2023-04-15T21:19:22.015Z,101414.34
2023-04-15T21:29:23.872Z,101422.16
2023-04-15T21:39:25.408Z,101427.25
2023-04-15T21:49:26.944Z,101435.22
2023-04-15T21:59:28.807Z,101447.25
2023-04-15T22:09:30.892Z,101463.47
2023-04-15T22:19:32.478Z,101456.59
2023-04-15T22:29:34.455Z,101470.28
2023-04-15T22:39:36.264Z,101476.97
2023-04-15T22:49:37.792Z,101484.00
2023-04-15T22:59:39.350Z,101487.56
2023-04-15T23:09:41.022Z,101494.41
2023-04-15T23:19:42.575Z,101509.06
2023-04-15T23:29:44.046Z,101507.38
2023-04-15T23:39:45.438Z,101501.09
2023-04-15T23:49:47.736Z,101508.91
2023-04-15T23:59:49.185Z,101515.00
